• Join FlightAware (Why Join?)
  • Login
  • US Flag 
 
04:57PM EST


 

Airport Tracker/Info


-or-


 

Live Flight TrackerFlight Track Log ✈ SWA308 ✈ 31-Jul-2013 ✈ KMDW - KSEA

Flight Track Log - Related Links

Times and Time Zones

All times are in EDT time to prevent confusion due to time zone crossing. See the SWA308 flight status page for this flight to view local times or setup timezone preferences in your user account.

Time Position Orientation Groundspeed Altitude Reporting Facility
EDT Latitude Longitude Course Direction KTS MPH feet Rate Location/Type
09:24PM 41.7690 -87.7770 245° Southwest 166 191 1,800  Level FlightAware
09:25PM 41.7620 -87.7980 246° West 192 221 2,400 1,560 Climbing FlightAware
09:25PM 41.7530 -87.8220 243° Southwest 220 253 2,900 1,200 Climbing FlightAware
09:25PM 41.7460 -87.8480 250° West 221 254 3,200 1,320 Climbing FlightAware
09:26PM 41.7470 -87.8870 272° West 234 269 4,000 1,080 Climbing FlightAware
09:26PM 41.7480 -87.9180 272° West 251 289 4,100 1,140 Climbing FlightAware
09:27PM 41.7490 -87.9510 272° West 254 292 4,800 2,520 Climbing FlightAware
09:27PM 41.7510 -87.9900 274° West 263 303 6,000 3,060 Climbing FlightAware
09:27PM 41.7530 -88.0200 275° West 261 300 7,000 3,060 Climbing FlightAware
09:27PM 41.7560 -88.0320 289° West 260 299 7,400 3,060 Climbing FlightAware
09:28PM 41.7670 -88.0630 295° West 264 304 8,500 3,120 Climbing FlightAware
09:28PM 41.7780 -88.0900 299° West 267 307 9,500 3,060 Climbing FlightAware
09:29PM 41.7990 -88.1430 298° West 270 311 11,400 2,040 Climbing FlightAware
09:29PM 41.8220 -88.1990 299° West 277 319 12,000 480 Climbing FlightAware
09:30PM 41.8400 -88.2450 298° West 277 319 12,000  Level FlightAware
09:30PM 41.8420 -88.2580 282° West 278 320 12,000 240 Level FlightAware
09:31PM 41.8380 -88.3220 265° West 286 329 12,200 1,560 Climbing FlightAware
09:31PM 41.8350 -88.3840 266° West 280 322 13,900 2,940 Climbing FlightAware
09:32PM 41.8310 -88.4370 264° West 279 321 15,400 2,640 Climbing FlightAware
09:32PM 41.8390 -88.4800 284° West 280 322 16,400 2,400 Climbing FlightAware
09:33PM 41.8540 -88.5310 292° West 283 326 17,800 2,520 Climbing FlightAware
09:33PM 41.8730 -88.5900 293° West 285 328 19,300 2,280 Climbing FlightAware
09:34PM 41.8920 -88.6530 292° West 293 337 20,600 2,040 Climbing FlightAware
09:34PM 41.9100 -88.7080 294° West 301 346 21,700 1,860 Climbing FlightAware
09:35PM 41.9300 -88.7710 293° West 306 352 22,800 1,860 Climbing FlightAware
09:36PM 41.9490 -88.8320 293° West 310 357 24,000 1,920 Climbing FlightAware
09:36PM 41.9670 -88.8900 293° West 313 360 25,000 1,320 Climbing FlightAware
09:37PM 41.9880 -88.9530 294° West 333 383 25,500 780 Climbing FlightAware
09:37PM 42.0120 -89.0270 294° West 353 406 26,000 660 Climbing FlightAware
09:38PM 42.0370 -89.1010 294° West 373 429 26,300 420 Climbing FlightAware
09:39PM 42.0600 -89.1710 294° West 393 452 26,500 420 Climbing FlightAware
09:39PM 42.0870 -89.2550 293° West 410 472 26,800 660 Climbing FlightAware
09:40PM 42.1060 -89.3100 295° West 417 480 27,200 1,320 Climbing FlightAware
09:40PM 42.1420 -89.4210 294° West 415 478 28,400 1,680 Climbing FlightAware
09:41PM 42.1710 -89.5080 294° West 408 470 29,600 1,560 Climbing FlightAware
09:42PM 42.1960 -89.5870 293° West 400 460 30,700 1,680 Climbing FlightAware
09:42PM 42.2320 -89.7050 292° West 387 445 32,000 1,020 Climbing FlightAware
09:43PM 42.2580 -89.7910 292° West 388 447 32,000 660 Level FlightAware
09:44PM 42.2780 -89.8600 291° West 383 441 32,800 1,380 Climbing FlightAware
09:44PM 42.3010 -89.9400 291° West 378 435 33,600 1,140 Climbing FlightAware
09:45PM 42.3240 -90.0200 291° West 381 438 34,200 720 Climbing FlightAware
09:45PM 42.3430 -90.0870 291° West 387 445 34,400 540 Climbing FlightAware
09:46PM 42.3650 -90.1650 291° West 389 448 34,800 960 Climbing FlightAware
09:46PM 42.3910 -90.2570 291° West 385 443 35,600 900 Climbing FlightAware
09:47PM 42.4120 -90.3330 291° West 383 441 36,000 300 Climbing FlightAware
09:48PM 42.4330 -90.4070 291° West 383 441 36,000  Level FlightAware
09:48PM 42.4530 -90.4760 291° West 383 441 36,000  Level FlightAware
09:49PM 42.4780 -90.5690 290° West 380 437 36,000  Level FlightAware
09:49PM 42.5010 -90.6520 291° West 376 433 36,000  Level FlightAware
09:50PM 42.5210 -90.7230 291° West 375 432 36,000  Level FlightAware
09:51PM 42.5430 -90.8030 290° West 375 432 36,000  Level FlightAware
09:51PM 42.5630 -90.8770 290° West 375 432 36,000  Level FlightAware
09:52PM 42.5800 -90.9390 290° West 374 430 36,000  Level FlightAware
09:52PM 42.6060 -91.0330 291° West 373 429 36,000  Level FlightAware
09:53PM 42.6250 -91.1010 291° West 372 428 36,000  Level FlightAware
09:53PM 42.6460 -91.1790 290° West 372 428 36,000  Level FlightAware
09:54PM 42.6680 -91.2630 290° West 372 428 36,000  Level FlightAware
09:55PM 42.6880 -91.3350 291° West 371 427 36,000  Level FlightAware
09:55PM 42.7080 -91.4110 290° West 371 427 36,000  Level FlightAware
09:56PM 42.7300 -91.4930 290° West 371 427 36,000  Level FlightAware
09:56PM 42.7510 -91.5720 290° West 371 427 36,000  Level FlightAware
09:57PM 42.7690 -91.6400 290° West 370 426 36,000  Level FlightAware
09:58PM 42.7900 -91.7200 290° West 369 425 36,000  Level FlightAware
09:58PM 42.8090 -91.7930 290° West 368 423 36,000  Level FlightAware
09:59PM 42.8300 -91.8700 290° West 366 421 36,000  Level FlightAware
09:59PM 42.8490 -91.9450 289° West 365 420 36,000  Level FlightAware
10:01PM 42.8860 -92.0850 290° West 365 420 36,000  Level FlightAware
10:01PM 42.9170 -92.2040 290° West 367 422 36,000  Level FlightAware
10:02PM 42.9380 -92.2840 290° West 367 422 36,000  Level FlightAware
10:02PM 42.9580 -92.3630 289° West 367 422 36,000  Level FlightAware
10:03PM 42.9780 -92.4420 289° West 367 422 36,000  Level FlightAware
10:04PM 42.9900 -92.4880 290° West 368 423 36,000  Level FlightAware
10:04PM 43.0130 -92.5780 289° West 369 425 36,000  Level FlightAware
10:05PM 43.0320 -92.6520 289° West 369 425 36,000  Level FlightAware
10:05PM 43.0530 -92.7350 289° West 368 423 36,000  Level FlightAware
10:06PM 43.0730 -92.8120 290° West 369 425 36,000  Level FlightAware
10:06PM 43.0910 -92.8830 289° West 369 425 36,000  Level FlightAware
10:07PM 43.1110 -92.9620 289° West 369 425 36,000  Level FlightAware
10:08PM 43.1310 -93.0410 289° West 367 422 36,000  Level FlightAware
10:08PM 43.1500 -93.1190 288° West 366 421 36,000  Level FlightAware
10:09PM 43.1690 -93.1970 288° West 365 420 36,000  Level FlightAware
10:09PM 43.1860 -93.2640 289° West 363 418 36,000  Level FlightAware
10:10PM 43.2060 -93.3460 289° West 363 418 36,000  Level FlightAware
10:11PM 43.2260 -93.4250 289° West 362 417 36,000  Level FlightAware
10:11PM 43.2430 -93.4950 288° West 360 414 36,000  Level FlightAware
10:12PM 43.2620 -93.5710 289° West 360 414 36,000  Level FlightAware
10:12PM 43.2810 -93.6520 288° West 359 413 36,000  Level FlightAware
10:13PM 43.3010 -93.7320 289° West 359 413 36,000  Level FlightAware
10:13PM 43.3170 -93.8000 288° West 359 413 36,000  Level FlightAware
10:14PM 43.3360 -93.8750 289° West 358 412 36,000  Level FlightAware
10:15PM 43.3550 -93.9560 288° West 357 411 36,000  Level FlightAware
10:15PM 43.3720 -94.0250 289° West 354 407 36,000  Level FlightAware
10:16PM 43.3880 -94.0950 287° West 352 405 36,000  Level FlightAware
10:16PM 43.4080 -94.1760 289° West 352 405 36,000  Level FlightAware
10:17PM 43.4260 -94.2520 288° West 352 405 36,000  Level FlightAware
10:18PM 43.4420 -94.3200 288° West 351 404 36,000  Level FlightAware
10:18PM 43.4620 -94.4040 288° West 351 404 36,000  Level FlightAware
10:19PM 43.4800 -94.4800 288° West 351 404 36,000  Level FlightAware
10:19PM 43.4960 -94.5490 288° West 351 404 36,000  Level FlightAware
10:20PM 43.5030 -94.5790 288° West 352 405 36,000  Level FlightAware
10:20PM 43.5270 -94.6810 288° West 356 410 36,000  Level FlightAware
10:21PM 43.5470 -94.7680 288° West 357 411 36,000  Level FlightAware
10:22PM 43.5640 -94.8420 288° West 359 413 36,000  Level FlightAware
10:22PM 43.5800 -94.9100 288° West 360 414 36,000  Level FlightAware
10:23PM 43.5980 -94.9900 287° West 359 413 36,000  Level FlightAware
10:23PM 43.6150 -95.0640 288° West 359 413 36,000  Level FlightAware
10:24PM 43.6330 -95.1430 287° West 358 412 36,000  Level FlightAware
10:24PM 43.6490 -95.2130 288° West 356 410 36,000  Level FlightAware
10:25PM 43.6670 -95.2910 288° West 355 409 36,000  Level FlightAware
10:26PM 43.6840 -95.3680 287° West 353 406 36,000  Level FlightAware
10:26PM 43.7020 -95.4450 288° West 352 405 36,000  Level FlightAware
10:27PM 43.7170 -95.5110 287° West 351 404 36,000  Level FlightAware
10:27PM 43.7340 -95.5910 286° West 351 404 36,000  Level FlightAware
10:28PM 43.7520 -95.6700 288° West 350 403 36,000  Level FlightAware
10:29PM 43.7680 -95.7410 287° West 351 404 36,000  Level FlightAware
10:29PM 43.7850 -95.8170 287° West 351 404 36,000  Level FlightAware
10:30PM 43.8020 -95.8950 287° West 352 405 36,000  Level FlightAware
10:30PM 43.8180 -95.9670 287° West 352 405 36,000  Level FlightAware
10:31PM 43.8340 -96.0440 286° West 353 406 36,000  Level FlightAware
10:31PM 43.8500 -96.1170 287° West 354 407 36,000  Level FlightAware
10:32PM 43.8680 -96.1970 287° West 354 407 36,000  Level FlightAware
10:33PM 43.8820 -96.2630 286° West 355 409 36,000  Level FlightAware
10:33PM 43.9000 -96.3450 287° West 356 410 36,000  Level FlightAware
10:34PM 43.9160 -96.4210 286° West 356 410 36,000  Level FlightAware
10:34PM 43.9330 -96.4980 287° West 357 411 36,000  Level FlightAware
10:35PM 43.9490 -96.5730 287° West 358 412 36,000  Level FlightAware
10:36PM 43.9660 -96.6520 287° West 357 411 36,000  Level FlightAware
10:36PM 43.9930 -96.7790 287° West 357 411 36,000  Level FlightAware
10:37PM 44.0070 -96.8480 286° West 357 411 36,000  Level FlightAware
10:38PM 44.0240 -96.9270 287° West 356 410 36,000  Level FlightAware
10:38PM 44.0440 -97.0250 286° West 356 410 36,000  Level FlightAware
10:39PM 44.0650 -97.1280 286° West 355 409 36,000  Level FlightAware
10:40PM 44.0770 -97.1850 286° West 355 409 36,000  Level FlightAware
10:40PM 44.0960 -97.2790 286° West 355 409 36,000  Level FlightAware
10:41PM 44.1170 -97.3760 287° West 354 407 36,000  Level FlightAware
10:42PM 44.1380 -97.4520 291° West 353 406 36,000  Level FlightAware
10:42PM 44.1660 -97.5510 292° West 351 404 36,000  Level FlightAware
10:43PM 44.1860 -97.6230 291° West 351 404 36,000  Level FlightAware
10:44PM 44.2040 -97.6900 291° West 351 404 36,000  Level FlightAware
10:44PM 44.2270 -97.7730 291° West 351 404 36,000  Level FlightAware
10:45PM 44.2500 -97.8590 291° West 352 405 36,000  Level FlightAware
10:45PM 44.2700 -97.9340 290° West 353 406 36,000  Level FlightAware
10:46PM 44.2890 -98.0020 291° West 352 405 36,000  Level FlightAware
10:47PM 44.3110 -98.0820 291° West 352 405 36,000  Level FlightAware
10:47PM 44.3270 -98.1440 290° West 351 404 36,000  Level FlightAware
10:48PM 44.3520 -98.2370 291° West 352 405 36,000  Level FlightAware
10:48PM 44.3690 -98.3030 290° West 352 405 36,000  Level FlightAware
10:49PM 44.3860 -98.3680 290° West 352 405 36,000  Level FlightAware
10:50PM 44.4030 -98.4340 290° West 352 405 36,000  Level FlightAware
10:50PM 44.4200 -98.4990 290° West 352 405 36,000  Level FlightAware
10:51PM 44.4370 -98.5650 290° West 352 405 36,000  Level FlightAware
10:52PM 44.4540 -98.6320 290° West 352 405 36,000  Level FlightAware
10:52PM 44.4720 -98.6980 291° West 352 405 36,000  Level FlightAware
10:53PM 44.4890 -98.7630 290° West 352 405 36,000  Level FlightAware
10:53PM 44.5060 -98.8290 290° West 352 405 36,000  Level FlightAware
10:54PM 44.5230 -98.8950 290° West 352 405 36,000  Level FlightAware
10:55PM 44.5400 -98.9600 290° West 352 405 36,000  Level FlightAware
10:55PM 44.5570 -99.0260 290° West 352 405 36,000  Level FlightAware
10:56PM 44.5740 -99.0940 289° West 352 405 36,000  Level FlightAware
10:56PM 44.5920 -99.1610 291° West 352 405 36,000  Level FlightAware
10:57PM 44.6090 -99.2270 290° West 352 405 36,000  Level FlightAware
10:58PM 44.6978 -99.5619 290° West 355 409 36,000  Level Minneapolis Center
10:59PM 44.7297 -99.6928 289° West 354 407 36,000  Level Minneapolis Center
11:00PM 44.7628 -99.8239 290° West 354 407 36,000  Level Minneapolis Center
11:01PM 44.8011 -99.9831 289° West 354 407 36,000  Level Minneapolis Center
11:02PM 44.8339 -100.1161 289° West 355 409 36,000  Level Minneapolis Center
11:03PM 44.8672 -100.2489 290° West 355 409 36,000  Level Minneapolis Center
11:04PM 44.9006 -100.3808 290° West 354 407 36,000  Level Minneapolis Center
11:06PM 44.9403 -100.5408 289° West 358 412 36,000  Level Minneapolis Center
11:07PM 44.9725 -100.6731 289° West 356 410 36,000  Level Minneapolis Center
11:08PM 45.0039 -100.8056 289° West 356 410 36,000  Level Minneapolis Center
11:09PM 45.0367 -100.9389 289° West 357 411 36,000  Level Minneapolis Center
11:10PM 45.0694 -101.0733 289° West 359 413 36,000  Level Minneapolis Center
11:11PM 45.1019 -101.2081 289° West 361 415 36,000  Level Minneapolis Center
11:12PM 45.1328 -101.3417 288° West 359 413 36,000  Level Minneapolis Center
11:13PM 45.1642 -101.4756 288° West 358 412 36,000  Level Minneapolis Center
11:14PM 45.2019 -101.6344 289° West 356 410 36,000  Level Minneapolis Center
11:15PM 45.2336 -101.7692 289° West 359 413 36,000  Level Minneapolis Center
11:16PM 45.2631 -101.9031 287° West 356 410 36,000  Level Minneapolis Center
11:17PM 45.2939 -102.0389 288° West 359 413 36,000  Level Minneapolis Center
11:18PM 45.3247 -102.1725 288° West 358 412 36,000  Level Minneapolis Center
11:19PM 45.3553 -102.3072 288° West 359 413 36,000  Level Minneapolis Center
11:20PM 45.3900 -102.4686 287° West 356 410 36,000  Level Minneapolis Center
11:21PM 45.4214 -102.6031 288° West 358 412 36,000  Level Minneapolis Center
11:22PM 45.4564 -102.7656 287° West 359 413 36,000  Level Minneapolis Center
11:23PM 45.4869 -102.9011 288° West 359 413 36,000  Level Minneapolis Center
11:24PM 45.5161 -103.0381 287° West 360 414 36,000 -60 Level Minneapolis Center
11:25PM 45.5422 -103.1614 287° West 360 414 35,900 -60 Descending Minneapolis Center
11:26PM 45.5717 -103.2975 287° West 359 413 35,900  Level Minneapolis Center
11:27PM 45.6006 -103.4347 287° West 360 414 35,900  Level Minneapolis Center
11:28PM 45.6336 -103.5978 286° West 361 415 35,900  Level Salt Lake Center
11:29PM 45.6631 -103.7350 287° West 362 417 35,900  Level Salt Lake Center
11:30PM 45.6903 -103.8719 286° West 360 414 35,900  Level Salt Lake Center
11:31PM 45.7189 -104.0092 287° West 360 414 35,900  Level Salt Lake Center
11:32PM 45.7478 -104.1458 287° West 360 414 35,900  Level Salt Lake Center
11:33PM 45.7753 -104.2833 286° West 360 414 35,900  Level Salt Lake Center
11:34PM 45.8031 -104.4208 286° West 360 414 35,900  Level Salt Lake Center
11:35PM 45.8331 -104.5650 287° West 362 417 36,000  Climbing Salt Lake Center
11:36PM 45.8647 -104.7317 285° West 362 417 36,000  Level Salt Lake Center
11:38PM 45.8933 -104.8700 287° West 364 419 36,000  Level Salt Lake Center
11:39PM 45.9189 -105.0086 285° West 362 417 36,000  Level Salt Lake Center
11:40PM 45.9439 -105.1450 285° West 356 410 36,000  Level Salt Lake Center
11:41PM 45.9717 -105.2828 286° West 358 412 36,000  Level Salt Lake Center
11:42PM 45.9983 -105.4225 285° West 362 417 36,000  Level Salt Lake Center
11:43PM 46.0250 -105.5633 285° West 364 419 36,000  Level Salt Lake Center
11:44PM 46.0519 -105.7053 285° West 368 423 36,000  Level Salt Lake Center
11:45PM 46.0786 -105.8472 285° West 369 425 36,000 180 Level Salt Lake Center
11:46PM 46.1114 -106.0194 285° West 370 426 36,400 720 Climbing Salt Lake Center
11:47PM 46.1392 -106.1619 286° West 371 427 37,500 780 Climbing Salt Lake Center
11:48PM 46.1650 -106.3000 285° West 368 423 38,000 240 Climbing Salt Lake Center
11:49PM 46.1906 -106.4383 285° West 364 419 38,000  Level Salt Lake Center
11:50PM 46.2156 -106.5758 285° West 361 415 38,000  Level Salt Lake Center
11:51PM 46.2397 -106.7158 284° West 360 414 38,000  Level Salt Lake Center
11:52PM 46.2653 -106.8556 285° West 360 414 38,000  Level Salt Lake Center
11:53PM 46.2903 -106.9972 284° West 362 417 38,000  Level Salt Lake Center
11:54PM 46.3153 -107.1386 284° West 363 418 38,000  Level Salt Lake Center
11:55PM 46.3456 -107.3100 284° West 365 420 38,000  Level Salt Lake Center
11:56PM 46.3697 -107.4547 284° West 365 420 38,000  Level Salt Lake Center
11:57PM 46.3939 -107.5956 284° West 362 417 38,000  Level Salt Lake Center
11:58PM 46.4183 -107.7361 284° West 361 415 38,000  Level Salt Lake Center
11:59PM 46.4417 -107.8797 283° West 367 422 38,000  Level Salt Lake Center
12:00AM 46.4658 -108.0228 284° West 367 422 38,000  Level Salt Lake Center
12:01AM 46.4906 -108.1681 284° West 371 427 38,000  Level Salt Lake Center
12:02AM 46.5147 -108.3147 284° West 377 434 38,000  Level Salt Lake Center
12:03AM 46.5375 -108.4597 283° West 372 428 38,000  Level Salt Lake Center
12:04AM 46.5653 -108.6347 283° West 372 428 38,000  Level Salt Lake Center
12:05AM 46.5894 -108.7803 284° West 372 428 38,000  Level Salt Lake Center
12:06AM 46.6128 -108.9269 283° West 375 432 38,000  Level Salt Lake Center
12:07AM 46.6356 -109.0719 283° West 370 426 38,000  Level Salt Lake Center
12:08AM 46.6581 -109.2192 283° West 373 429 38,000  Level Salt Lake Center
12:09AM 46.6811 -109.3644 283° West 372 428 38,000 -60 Level Salt Lake Center
12:10AM 46.7011 -109.5125 281° West 378 435 37,900 -60 Descending Salt Lake Center
12:11AM 46.7242 -109.6578 283° West 374 430 37,900  Level Salt Lake Center
12:12AM 46.7472 -109.8019 283° West 370 426 37,900  Level Salt Lake Center
12:13AM 46.7731 -109.9778 282° West 369 425 37,900  Level Salt Lake Center
12:14AM 46.7953 -110.1261 282° West 372 428 37,900  Level Salt Lake Center
12:15AM 46.8153 -110.2744 281° West 372 428 37,900  Level Salt Lake Center
12:16AM 46.8375 -110.4233 282° West 375 432 37,900  Level Salt Lake Center
12:17AM 46.8583 -110.5733 282° West 377 434 37,900  Level Salt Lake Center
12:18AM 46.8800 -110.7231 282° West 377 434 37,900  Level Salt Lake Center
12:19AM 46.8997 -110.8764 281° West 381 438 37,900  Level Salt Lake Center
12:20AM 46.9217 -111.0272 282° West 381 438 37,900  Level Salt Lake Center
12:21AM 46.9422 -111.1808 281° West 382 440 37,900  Level Salt Lake Center
12:22AM 46.9636 -111.3333 282° West 381 438 37,900  Level Salt Lake Center
12:23AM 46.9831 -111.4864 281° West 381 438 37,900  Level Salt Lake Center
12:25AM 47.0081 -111.6717 281° West 385 443 37,900  Level Salt Lake Center
12:26AM 47.0267 -111.8264 280° West 386 444 37,900  Level Salt Lake Center
12:27AM 47.0475 -111.9797 281° West 385 443 37,900  Level Salt Lake Center
12:28AM 47.0675 -112.1331 281° West 384 442 37,900  Level Salt Lake Center
12:29AM 47.0867 -112.2869 280° West 383 441 37,900  Level Salt Lake Center
12:30AM 47.1044 -112.4394 280° West 382 440 37,900  Level Salt Lake Center
12:31AM 47.1247 -112.5925 281° West 381 438 37,900  Level Salt Lake Center
12:32AM 47.1433 -112.7458 280° West 382 440 37,900  Level Salt Lake Center
12:33AM 47.1622 -112.8967 280° West 378 435 37,900  Level Salt Lake Center
12:34AM 47.1811 -113.0589 280° West 383 441 37,900  Level Salt Lake Center
12:35AM 47.1939 -113.2122 277° West 382 440 37,900  Level Salt Lake Center
12:36AM 47.1992 -113.3669 273° West 380 437 37,900  Level Salt Lake Center
12:37AM 47.2056 -113.5217 274° West 381 438 37,900  Level Salt Lake Center
12:38AM 47.2139 -113.7094 274° West 385 443 37,900  Level Salt Lake Center
12:39AM 47.2211 -113.8658 274° West 383 441 37,900  Level Salt Lake Center
12:40AM 47.2294 -114.0231 275° West 385 443 37,900  Level Salt Lake Center
12:41AM 47.2372 -114.1797 274° West 384 442 37,900  Level Salt Lake Center
12:42AM 47.2456 -114.3356 275° West 381 438 37,900  Level Salt Lake Center
12:43AM 47.2539 -114.4911 275° West 382 440 37,900  Level Salt Lake Center
12:44AM 47.2611 -114.6472 274° West 384 442 37,900  Level Salt Lake Center
12:45AM 47.2831 -114.8081 281° West 399 459 37,900  Level Salt Lake Center
12:46AM 47.3011 -114.9681 280° West 397 457 37,900  Level Salt Lake Center
12:47AM 47.3233 -115.1617 280° West 399 459 37,900  Level Seattle Center
12:48AM 47.3425 -115.3222 280° West 398 458 37,900  Level Seattle Center
12:49AM 47.3606 -115.4869 279° West 404 465 37,900  Level Seattle Center
12:50AM 47.3786 -115.6497 279° West 404 465 37,900  Level Seattle Center
12:51AM 47.3967 -115.8169 279° West 406 467 37,900  Level Seattle Center
12:52AM 47.4153 -115.9808 280° West 406 467 37,900  Level Seattle Center
12:53AM 47.4322 -116.1461 279° West 407 468 37,900  Level Seattle Center
12:54AM 47.4492 -116.3117 279° West 408 470 37,900  Level Seattle Center
12:55AM 47.4658 -116.4781 278° West 412 474 37,900  Level Seattle Center
12:56AM 47.4831 -116.6450 279° West 413 475 37,900  Level Seattle Center
12:57AM 47.5003 -116.8156 279° West 418 481 37,900  Level Seattle Center
12:58AM 47.5169 -116.9892 278° West 430 495 37,900  Level Seattle Center
01:04AM 47.6080 -117.9640 278° West 431 496 38,000  Climbing FlightAware
01:04AM 47.6170 -118.0700 277° West 431 496 38,000  Level FlightAware
01:05AM 47.6250 -118.1630 277° West 431 496 38,000  Level FlightAware
01:05AM 47.6370 -118.2870 278° West 438 504 38,000  Level FlightAware
01:06AM 47.6460 -118.3940 277° West 439 505 38,000  Level FlightAware
01:07AM 47.6550 -118.5000 277° West 439 505 38,000  Level FlightAware
01:07AM 47.6630 -118.5970 277° West 439 505 38,000  Level FlightAware
01:08AM 47.6720 -118.7030 277° West 439 505 38,000  Level FlightAware
01:08AM 47.6810 -118.8110 277° West 439 505 38,000  Level FlightAware
01:09AM 47.6890 -118.9120 277° West 440 506 38,000  Level FlightAware
01:09AM 47.6970 -119.0190 276° West 440 506 38,000  Level FlightAware
01:10AM 47.7060 -119.1270 277° West 441 507 38,000  Level FlightAware
01:11AM 47.7130 -119.2250 276° West 440 506 38,000  Level FlightAware
01:11AM 47.7210 -119.3210 277° West 440 506 38,000  Level FlightAware
01:12AM 47.7290 -119.4330 276° West 442 509 38,000 -360 Level FlightAware
01:12AM 47.7380 -119.5430 277° West 448 516 37,600 -1,560 Descending FlightAware
01:13AM 47.7450 -119.6580 275° West 442 509 36,100 -2,280 Descending FlightAware
01:14AM 47.7520 -119.7540 276° West 422 486 35,000 -1,980 Descending FlightAware
01:14AM 47.7590 -119.8530 276° West 403 464 33,900 -2,100 Descending FlightAware
01:15AM 47.7670 -119.9480 277° West 399 459 32,600 -1,680 Descending FlightAware
01:15AM 47.7750 -120.0500 277° West 395 455 31,900 -1,500 Descending FlightAware
01:16AM 47.7810 -120.1340 276° West 388 447 30,900 -1,920 Descending FlightAware
01:16AM 47.7870 -120.2220 276° West 391 450 29,800 -1,920 Descending FlightAware
01:17AM 47.7950 -120.3260 277° West 392 451 28,600 -1,920 Descending FlightAware
01:18AM 47.8000 -120.4070 275° West 394 453 27,600 -2,040 Descending FlightAware
01:18AM 47.8080 -120.5090 277° West 396 456 26,300 -2,100 Descending FlightAware
01:19AM 47.8150 -120.6130 276° West 399 459 25,000 -1,980 Descending FlightAware
01:19AM 47.8220 -120.7180 276° West 396 456 23,800 -1,920 Descending FlightAware
01:20AM 47.8290 -120.8130 276° West 391 450 22,600 -1,980 Descending FlightAware
01:21AM 47.8360 -120.9180 276° West 389 448 21,300 -2,040 Descending FlightAware
01:21AM 47.8420 -121.0130 275° West 387 445 20,100 -2,040 Descending FlightAware
01:22AM 47.8480 -121.1040 276° West 382 440 19,000 -1,980 Descending FlightAware
01:22AM 47.8540 -121.1960 276° West 378 435 17,800 -2,160 Descending FlightAware
01:23AM 47.8600 -121.2850 276° West 376 433 16,500 -2,160 Descending FlightAware
01:24AM 47.8660 -121.3760 276° West 372 428 15,300 -1,920 Descending FlightAware
01:24AM 47.8720 -121.4630 276° West 368 423 14,200 -2,100 Descending FlightAware
01:25AM 47.8770 -121.5510 275° West 350 403 12,900 -2,100 Descending FlightAware
01:25AM 47.8810 -121.6300 274° West 330 380 11,900 -900 Descending FlightAware
01:26AM 47.8770 -121.7270 267° West 293 337 11,700 -720 Descending FlightAware
01:27AM 47.8660 -121.7840 254° West 284 327 11,000 -1,440 Descending FlightAware
01:27AM 47.8530 -121.8500 254° West 284 327 10,100 -1,680 Descending FlightAware
01:28AM 47.8430 -121.8960 252° West 280 322 9,400 -1,740 Descending FlightAware
01:28AM 47.8370 -121.9240 252° West 280 322 9,000 -1,560 Descending FlightAware
01:28AM 47.8320 -121.9480 253° West 280 322 8,600 -1,680 Descending FlightAware
01:29AM 47.8210 -121.9990 252° West 284 327 7,900 -1,620 Descending FlightAware
01:29AM 47.8140 -122.0320 252° West 282 325 7,400 -1,320 Descending FlightAware
01:30AM 47.7890 -122.1590 254° West 273 314 6,000 -1,320 Descending FlightAware
01:30AM 47.7850 -122.1760 251° West 275 316 5,700 -1,680 Descending FlightAware
01:30AM 47.7800 -122.1960 250° West 276 318 5,400 -1,140 Descending FlightAware
01:30AM 47.7770 -122.2030 237° Southwest 275 316 5,400 -780 Level FlightAware
01:31AM 47.7720 -122.2210 248° West 272 313 5,200 -720 Descending FlightAware
01:31AM 47.7700 -122.2300 252° West 271 312 5,200 -300 Level FlightAware
01:31AM 47.7481 -122.2819 252° West 251 289 5,000 -420 Descending Seattle Center
01:32AM 47.6858 -122.3164 200° South 225 259 4,600 -780 Descending Seattle Center
01:33AM 47.6219 -122.3189 182° South 208 239 3,400 -1,080 Descending Seattle Center
01:34AM 47.5658 -122.3169 179° South 196 226 2,400 -1,020 Descending Seattle Center
01:35AM 47.5217 -122.3183 181° South 177 204 1,500 -840 Descending Seattle Center
01:36AM 47.4814 -122.3175 179° South 140 161 800 -540 Descending Seattle Center
01:38AM 47.4381 -122.3194 182° South 144 166 400 -360 Descending Seattle Center